createdAt,value
2022-12-09T00:03:34.034Z,31.70
2022-12-09T00:06:23.989Z,26.48
2022-12-09T00:09:15.840Z,25.73
2022-12-09T00:12:03.159Z,28.42
2022-12-09T00:14:50.361Z,27.80
2022-12-09T00:17:37.458Z,27.77
2022-12-09T00:20:24.595Z,30.20
2022-12-09T00:23:12.179Z,25.95
2022-12-09T00:25:59.492Z,28.73
2022-12-09T00:28:47.091Z,24.27
2022-12-09T00:31:36.002Z,27.10
2022-12-09T00:34:23.113Z,29.08
2022-12-09T00:37:10.209Z,27.33
2022-12-09T00:39:57.225Z,26.70
2022-12-09T00:42:44.373Z,29.40
2022-12-09T00:45:31.637Z,26.13
2022-12-09T00:48:18.665Z,26.95
2022-12-09T00:51:11.232Z,24.88
2022-12-09T00:53:58.366Z,24.88
2022-12-09T00:56:45.489Z,28.00
2022-12-09T00:59:32.740Z,24.25
2022-12-09T01:02:19.898Z,28.23
2022-12-09T01:05:07.225Z,26.17
2022-12-09T01:07:54.253Z,31.02
2022-12-09T01:10:43.795Z,30.23
2022-12-09T01:13:31.144Z,28.83
2022-12-09T01:16:24.894Z,28.83
2022-12-09T01:19:14.698Z,25.88
2022-12-09T01:22:02.012Z,24.02
2022-12-09T01:24:49.191Z,30.23
2022-12-09T01:27:36.212Z,26.58
2022-12-09T01:30:23.307Z,24.08
2022-12-09T01:33:10.616Z,25.92
2022-12-09T01:35:57.960Z,24.90
2022-12-09T01:38:46.616Z,23.33
2022-12-09T01:41:34.464Z,24.75
2022-12-09T01:44:24.400Z,24.58
2022-12-09T01:47:22.385Z,28.00
2022-12-09T01:50:10.600Z,25.83
2022-12-09T01:52:58.577Z,30.27
2022-12-09T01:55:46.405Z,25.08
2022-12-09T01:58:33.885Z,27.27
2022-12-09T02:01:21.746Z,26.65
2022-12-09T02:04:09.119Z,24.25
2022-12-09T02:07:00.166Z,27.02
2022-12-09T02:09:47.868Z,26.35
2022-12-09T02:12:46.856Z,28.27
2022-12-09T02:15:41.848Z,24.05
2022-12-09T02:18:39.758Z,26.30
2022-12-09T02:21:31.262Z,25.65
2022-12-09T02:24:35.446Z,28.13
2022-12-09T02:27:43.330Z,25.63
2022-12-09T02:30:38.208Z,25.02
2022-12-09T02:33:42.042Z,26.50
2022-12-09T02:36:35.119Z,24.95
2022-12-09T02:39:29.960Z,28.10
2022-12-09T02:42:19.290Z,31.10
2022-12-09T02:45:09.035Z,26.27
2022-12-09T02:48:01.344Z,23.25
2022-12-09T02:50:51.345Z,23.52
2022-12-09T02:53:40.237Z,27.13
2022-12-09T02:56:28.175Z,24.13
2022-12-09T02:59:15.334Z,25.17
2022-12-09T03:02:12.536Z,24.73
2022-12-09T03:05:03.041Z,25.88
2022-12-09T03:07:56.047Z,24.63
2022-12-09T03:11:06.879Z,24.17
2022-12-09T03:14:09.906Z,24.77
2022-12-09T03:17:05.392Z,24.90
2022-12-09T03:19:58.916Z,29.30
2022-12-09T03:22:48.262Z,28.00
2022-12-09T03:25:40.855Z,29.10
2022-12-09T03:28:35.051Z,25.50
2022-12-09T03:31:25.097Z,21.55
2022-12-09T03:34:16.433Z,21.85
2022-12-09T03:37:05.568Z,24.52
2022-12-09T03:39:54.953Z,24.67
2022-12-09T03:43:00.856Z,26.23
2022-12-09T03:45:48.821Z,23.13
2022-12-09T03:48:36.395Z,23.98
2022-12-09T03:51:30.812Z,24.00
2022-12-09T03:54:30.962Z,25.73
2022-12-09T04:00:08.367Z,26.75
2022-12-09T04:02:55.717Z,23.52
2022-12-09T04:05:43.373Z,23.30
2022-12-09T04:08:30.982Z,25.05
2022-12-09T04:11:18.423Z,23.77
2022-12-09T04:14:09.145Z,31.63
2022-12-09T04:16:59.489Z,23.85
2022-12-09T04:19:46.689Z,24.73
2022-12-09T04:22:33.805Z,26.05
2022-12-09T04:25:21.227Z,24.80
2022-12-09T04:28:08.901Z,22.40
2022-12-09T04:30:56.062Z,21.73
2022-12-09T04:33:44.198Z,24.65
2022-12-09T04:36:31.857Z,26.85
2022-12-09T04:39:19.746Z,23.65
2022-12-09T04:42:07.086Z,21.15
2022-12-09T04:44:54.406Z,28.27
2022-12-09T04:47:41.572Z,25.42
2022-12-09T04:50:29.086Z,21.00
2022-12-09T04:53:16.297Z,23.30
2022-12-09T04:56:06.243Z,23.38
2022-12-09T04:58:53.663Z,26.02
2022-12-09T05:01:40.733Z,26.52
2022-12-09T05:04:28.037Z,26.60
2022-12-09T05:07:15.494Z,25.73
2022-12-09T05:10:03.093Z,23.98
2022-12-09T05:12:50.345Z,27.58
2022-12-09T05:15:38.955Z,23.75
2022-12-09T05:18:26.580Z,27.45
2022-12-09T05:21:17.938Z,27.08
2022-12-09T05:24:05.634Z,23.95
2022-12-09T05:26:53.072Z,27.27
2022-12-09T05:29:40.646Z,24.80
2022-12-09T05:32:30.793Z,25.88
2022-12-09T05:38:05.671Z,25.10
2022-12-09T05:40:53.687Z,23.45
2022-12-09T05:43:41.095Z,25.08
2022-12-09T05:46:28.948Z,23.40
2022-12-09T05:49:16.206Z,28.13
2022-12-09T05:52:03.892Z,25.88
2022-12-09T05:54:51.263Z,30.95
2022-12-09T05:57:38.643Z,28.30
2022-12-09T06:00:25.931Z,27.70
2022-12-09T06:03:13.680Z,30.10
2022-12-09T06:06:15.324Z,27.27
2022-12-09T06:09:03.184Z,33.30
2022-12-09T06:11:50.846Z,38.50
2022-12-09T06:14:38.675Z,32.75
2022-12-09T06:17:26.236Z,37.17
2022-12-09T06:20:14.447Z,32.25
2022-12-09T06:23:01.931Z,36.25
2022-12-09T06:25:49.158Z,34.55
2022-12-09T06:28:36.601Z,31.20
2022-12-09T06:31:24.250Z,35.17
2022-12-09T06:34:12.448Z,33.40
2022-12-09T06:37:00.238Z,34.70
2022-12-09T06:39:47.928Z,38.85
2022-12-09T06:42:35.547Z,39.65
2022-12-09T06:45:23.530Z,40.33
2022-12-09T06:48:10.923Z,36.78
2022-12-09T06:50:58.660Z,37.53
2022-12-09T06:53:46.778Z,38.33
2022-12-09T06:56:34.112Z,35.00
2022-12-09T06:59:21.690Z,34.15
2022-12-09T07:02:10.811Z,36.80
2022-12-09T07:04:58.291Z,36.40
2022-12-09T07:07:51.349Z,35.50
2022-12-09T07:10:40.769Z,33.75
2022-12-09T07:13:28.844Z,33.65
2022-12-09T07:16:16.412Z,31.33
2022-12-09T07:19:05.109Z,34.85
2022-12-09T07:21:52.703Z,29.85
2022-12-09T07:24:40.774Z,35.75
2022-12-09T07:27:28.167Z,30.77
2022-12-09T07:30:15.640Z,35.80
2022-12-09T07:33:03.204Z,31.95
2022-12-09T07:35:50.837Z,30.60
2022-12-09T07:38:38.168Z,27.15
2022-12-09T07:41:25.933Z,27.25
2022-12-09T07:44:13.582Z,27.58
2022-12-09T07:47:01.250Z,27.38
2022-12-09T07:49:48.658Z,25.17
2022-12-09T07:52:36.384Z,22.35
2022-12-09T07:55:24.053Z,26.00
2022-12-09T07:58:11.286Z,27.33
2022-12-09T08:01:04.401Z,26.20
2022-12-09T08:03:52.371Z,28.88
2022-12-09T08:06:40.139Z,27.80
2022-12-09T08:09:27.703Z,28.55
2022-12-09T08:12:15.424Z,29.73
2022-12-09T08:15:03.031Z,26.83
2022-12-09T08:17:50.248Z,26.15
2022-12-09T08:20:37.885Z,28.27
2022-12-09T08:23:25.593Z,29.00
2022-12-09T08:26:14.697Z,22.95
2022-12-09T08:29:02.073Z,26.40
2022-12-09T08:31:49.783Z,29.38
2022-12-09T08:34:37.326Z,27.20
2022-12-09T08:37:24.763Z,25.60
2022-12-09T08:40:13.862Z,25.02
2022-12-09T08:43:05.029Z,21.77
2022-12-09T08:45:52.501Z,27.35
2022-12-09T08:48:41.833Z,22.95
2022-12-09T08:51:30.443Z,24.42
2022-12-09T08:54:18.141Z,23.85
2022-12-09T08:57:05.799Z,25.75
2022-12-09T08:59:53.183Z,22.67
2022-12-09T09:02:40.555Z,22.58
2022-12-09T09:05:28.396Z,19.77
2022-12-09T09:08:19.096Z,22.73
2022-12-09T09:11:12.379Z,25.80
2022-12-09T09:14:00.400Z,23.23
2022-12-09T09:16:48.252Z,22.02
2022-12-09T09:19:35.947Z,24.08
2022-12-09T09:22:23.556Z,26.00
2022-12-09T09:25:11.015Z,24.48
2022-12-09T09:27:58.451Z,25.38
2022-12-09T09:30:50.555Z,26.35
2022-12-09T09:33:38.233Z,25.92
2022-12-09T09:36:25.773Z,27.80
2022-12-09T09:39:13.808Z,25.02
2022-12-09T09:42:08.243Z,25.30
2022-12-09T09:44:56.314Z,24.52
2022-12-09T09:47:59.496Z,24.90
2022-12-09T09:50:58.420Z,24.38
2022-12-09T09:53:50.456Z,26.90
2022-12-09T09:56:55.271Z,23.98
2022-12-09T09:59:42.724Z,25.83
2022-12-09T10:02:38.615Z,26.67
2022-12-09T10:05:29.225Z,26.10
2022-12-09T10:08:35.836Z,24.95
2022-12-09T10:11:33.114Z,23.98
2022-12-09T10:14:46.663Z,30.70
2022-12-09T10:17:43.250Z,28.10
2022-12-09T10:20:32.436Z,32.80
2022-12-09T10:23:21.641Z,28.05
2022-12-09T10:26:16.932Z,27.52
2022-12-09T10:29:14.217Z,22.60
2022-12-09T10:32:01.782Z,26.27
2022-12-09T10:34:49.546Z,26.42
2022-12-09T10:37:36.867Z,28.35
2022-12-09T10:40:36.196Z,30.13
2022-12-09T10:43:40.190Z,24.50
2022-12-09T10:46:27.630Z,26.67
2022-12-09T10:49:22.715Z,26.38
2022-12-09T10:52:10.141Z,26.38
2022-12-09T10:54:58.244Z,25.80
2022-12-09T10:57:45.349Z,25.00
2022-12-09T11:00:34.991Z,26.02
2022-12-09T11:03:32.872Z,25.70
2022-12-09T11:06:27.835Z,26.30
2022-12-09T11:09:27.855Z,28.25
2022-12-09T11:12:28.572Z,22.48
2022-12-09T11:15:26.378Z,23.67
2022-12-09T11:18:22.077Z,28.55
2022-12-09T11:21:29.876Z,26.23
2022-12-09T11:24:23.267Z,26.40
2022-12-09T11:27:34.720Z,28.67
2022-12-09T11:30:29.265Z,23.30
2022-12-09T11:33:38.514Z,26.27
2022-12-09T11:36:35.413Z,22.02
2022-12-09T11:39:32.983Z,22.70
2022-12-09T11:42:23.283Z,25.98
2022-12-09T11:45:22.897Z,24.83
2022-12-09T11:48:36.247Z,21.88
2022-12-09T11:51:44.520Z,22.58
2022-12-09T11:55:05.149Z,25.38
2022-12-09T11:57:57.216Z,25.98
2022-12-09T12:00:52.925Z,27.10
2022-12-09T12:03:48.071Z,21.88
2022-12-09T12:06:47.121Z,26.33
2022-12-09T12:10:02.704Z,23.77
2022-12-09T12:13:08.147Z,21.63
2022-12-09T12:16:17.895Z,23.98
2022-12-09T12:22:52.955Z,24.40
2022-12-09T12:25:50.563Z,22.75
2022-12-09T12:29:00.117Z,24.65
2022-12-09T12:32:10.325Z,25.33
2022-12-09T12:35:13.127Z,20.25
2022-12-09T12:38:22.151Z,23.13
2022-12-09T12:41:17.167Z,25.58
2022-12-09T12:44:51.634Z,28.10
2022-12-09T12:47:48.093Z,24.73
2022-12-09T12:50:49.739Z,26.00
2022-12-09T12:53:59.000Z,28.60
2022-12-09T12:56:51.612Z,29.37
2022-12-09T12:59:47.913Z,24.70
2022-12-09T13:03:09.578Z,22.83
2022-12-09T13:05:58.624Z,23.17
2022-12-09T13:09:03.246Z,25.60
2022-12-09T13:14:32.191Z,27.33
2022-12-09T13:17:23.443Z,30.02
2022-12-09T13:20:19.164Z,27.33
2022-12-09T13:23:27.661Z,29.85
2022-12-09T13:26:26.817Z,28.50
2022-12-09T13:29:31.958Z,32.00
2022-12-09T13:32:37.819Z,30.52
2022-12-09T13:35:33.772Z,28.10
2022-12-09T13:38:40.790Z,28.30
2022-12-09T13:41:27.893Z,29.45
2022-12-09T13:44:19.048Z,30.13
2022-12-09T13:47:16.423Z,30.60
2022-12-09T13:50:21.644Z,23.45
2022-12-09T13:53:20.723Z,27.50
2022-12-09T13:56:42.039Z,27.13
2022-12-09T13:59:39.992Z,25.05
2022-12-09T14:02:29.973Z,27.63
2022-12-09T14:05:26.275Z,31.48
2022-12-09T14:08:24.710Z,28.02
2022-12-09T14:11:47.981Z,27.25
2022-12-09T14:14:34.933Z,23.75
2022-12-09T14:17:28.946Z,30.42
2022-12-09T14:20:25.282Z,26.00
2022-12-09T14:23:15.716Z,24.23
2022-12-09T14:26:05.273Z,27.05
2022-12-09T14:28:54.241Z,27.92
2022-12-09T14:31:49.984Z,20.98
2022-12-09T14:34:40.768Z,30.17
2022-12-09T14:37:35.595Z,24.85
2022-12-09T14:40:31.843Z,26.92
2022-12-09T14:43:37.218Z,23.35
2022-12-09T14:46:36.516Z,23.13
2022-12-09T14:49:27.758Z,24.88
2022-12-09T14:52:24.245Z,17.40
2022-12-09T14:55:16.174Z,17.52
2022-12-09T14:58:03.799Z,15.68
2022-12-09T15:01:05.267Z,16.08
2022-12-09T15:04:01.250Z,14.65
2022-12-09T15:06:48.737Z,15.48
2022-12-09T15:09:36.169Z,14.80
2022-12-09T15:12:32.614Z,10.80
2022-12-09T15:15:19.700Z,12.95
2022-12-09T15:18:17.396Z,11.40
2022-12-09T15:21:08.142Z,9.02
2022-12-09T15:23:56.404Z,12.13
2022-12-09T15:26:55.497Z,12.48
2022-12-09T15:29:42.776Z,11.45
2022-12-09T15:32:31.356Z,12.23
2022-12-09T15:35:22.445Z,11.23
2022-12-09T15:38:11.201Z,13.48
2022-12-09T15:41:19.878Z,13.70
2022-12-09T15:44:12.989Z,10.20
2022-12-09T15:47:06.874Z,9.15
2022-12-09T15:50:04.825Z,8.18
2022-12-09T15:53:01.153Z,11.50
2022-12-09T15:55:55.080Z,11.73
2022-12-09T15:58:48.523Z,13.65
2022-12-09T16:01:37.556Z,12.38
2022-12-09T16:04:32.544Z,9.98
2022-12-09T16:07:21.981Z,10.05
2022-12-09T16:10:17.105Z,8.68
2022-12-09T16:13:06.750Z,7.90
2022-12-09T16:16:03.029Z,10.30
2022-12-09T16:18:51.147Z,9.43
2022-12-09T16:21:38.731Z,10.05
2022-12-09T16:24:44.081Z,9.68
2022-12-09T16:27:40.596Z,9.20
2022-12-09T16:30:32.919Z,7.55
2022-12-09T16:33:24.517Z,10.73
2022-12-09T16:36:26.568Z,8.30
2022-12-09T16:39:26.556Z,8.00
2022-12-09T16:42:23.508Z,10.10
2022-12-09T16:45:32.376Z,9.50
2022-12-09T16:48:21.605Z,9.32
2022-12-09T16:51:13.365Z,8.77
2022-12-09T16:54:02.304Z,8.43
2022-12-09T16:56:54.174Z,9.07
2022-12-09T16:59:44.199Z,5.55
2022-12-09T17:02:37.714Z,9.90
2022-12-09T17:05:25.549Z,10.52
2022-12-09T17:08:13.634Z,10.20
2022-12-09T17:11:01.692Z,11.10
2022-12-09T17:13:50.931Z,7.85
2022-12-09T17:16:39.011Z,7.87
2022-12-09T17:19:27.186Z,9.82
2022-12-09T17:22:15.379Z,39.95
2022-12-09T17:25:04.962Z,21.52
2022-12-09T17:27:53.490Z,9.75
2022-12-09T17:30:41.515Z,17.33
2022-12-09T17:33:30.738Z,39.30
2022-12-09T17:36:20.236Z,44.07
2022-12-09T17:39:10.624Z,63.35
2022-12-09T17:41:58.749Z,18.80
2022-12-09T17:44:47.425Z,11.88
2022-12-09T17:47:35.390Z,10.75
2022-12-09T17:50:26.075Z,30.80
2022-12-09T17:53:13.522Z,13.25
2022-12-09T17:56:07.862Z,51.72
2022-12-09T17:58:57.953Z,20.38
2022-12-09T18:01:47.626Z,16.63
2022-12-09T18:04:35.360Z,19.58
2022-12-09T18:07:22.804Z,19.52
2022-12-09T18:10:11.556Z,21.80
2022-12-09T18:13:00.179Z,20.83
2022-12-09T18:15:54.076Z,19.58
2022-12-09T18:18:43.161Z,23.90
2022-12-09T18:21:30.759Z,25.50
2022-12-09T18:24:18.814Z,27.00
2022-12-09T18:27:06.291Z,25.50
2022-12-09T18:29:54.991Z,28.27
2022-12-09T18:32:42.604Z,24.33
2022-12-09T18:35:30.312Z,28.40
2022-12-09T18:38:19.568Z,31.40
2022-12-09T18:41:15.022Z,25.50
2022-12-09T18:44:05.335Z,29.70
2022-12-09T18:49:40.245Z,26.00
2022-12-09T18:52:27.464Z,28.33
2022-12-09T18:55:14.878Z,29.02
2022-12-09T18:58:02.697Z,30.23
2022-12-09T19:00:51.286Z,30.73
2022-12-09T19:03:40.465Z,34.45
2022-12-09T19:06:34.923Z,30.55
2022-12-09T19:09:25.380Z,36.10
2022-12-09T19:12:45.278Z,37.58
2022-12-09T19:15:20.478Z,34.85
2022-12-09T19:18:08.487Z,31.42
2022-12-09T19:20:56.451Z,33.03
2022-12-09T19:23:46.134Z,35.95
2022-12-09T19:26:39.214Z,29.85
2022-12-09T19:29:28.550Z,38.35
2022-12-09T19:32:50.954Z,38.58
2022-12-09T19:35:24.605Z,34.20
2022-12-09T19:38:14.129Z,30.27
2022-12-09T19:41:02.853Z,32.70
2022-12-09T19:43:58.537Z,34.25
2022-12-09T19:46:47.134Z,36.53
2022-12-09T19:49:34.954Z,38.90
2022-12-09T19:52:24.419Z,34.55
2022-12-09T19:55:15.003Z,35.00
2022-12-09T19:58:03.938Z,32.83
2022-12-09T20:00:51.746Z,35.05
2022-12-09T20:03:41.350Z,35.80
2022-12-09T20:06:29.405Z,35.55
2022-12-09T20:09:27.603Z,37.95
2022-12-09T20:12:15.768Z,31.80
2022-12-09T20:15:07.670Z,29.83
2022-12-09T20:17:55.570Z,30.42
2022-12-09T20:20:48.701Z,28.83
2022-12-09T20:23:41.694Z,31.27
2022-12-09T20:26:32.927Z,29.83
2022-12-09T20:29:20.790Z,27.30
2022-12-09T20:32:09.759Z,27.00
2022-12-09T20:34:58.140Z,31.25
2022-12-09T20:37:47.374Z,29.02
2022-12-09T20:40:40.359Z,34.83
2022-12-09T20:43:31.235Z,27.20
2022-12-09T20:46:22.335Z,25.65
2022-12-09T20:49:10.706Z,26.85
2022-12-09T20:51:58.473Z,32.15
2022-12-09T20:54:46.506Z,27.63
2022-12-09T20:57:34.546Z,29.00
2022-12-09T21:00:24.252Z,34.67
2022-12-09T21:03:11.900Z,33.78
2022-12-09T21:05:59.776Z,34.35
2022-12-09T21:08:47.998Z,31.50
2022-12-09T21:11:36.724Z,34.53
2022-12-09T21:14:32.799Z,32.88
2022-12-09T21:17:20.798Z,29.77
2022-12-09T21:20:11.960Z,25.92
2022-12-09T21:23:32.409Z,27.92
2022-12-09T21:26:10.099Z,29.25
2022-12-09T21:29:00.349Z,28.60
2022-12-09T21:31:55.044Z,31.88
2022-12-09T21:34:42.965Z,27.02
2022-12-09T21:37:31.976Z,30.25
2022-12-09T21:40:19.536Z,28.17
2022-12-09T21:43:07.686Z,26.98
2022-12-09T21:45:55.800Z,29.33
2022-12-09T21:48:44.530Z,27.88
2022-12-09T21:51:34.704Z,29.67
2022-12-09T21:54:21.877Z,33.88
2022-12-09T21:57:09.454Z,29.88
2022-12-09T21:59:56.735Z,28.90
2022-12-09T22:02:44.822Z,27.35
2022-12-09T22:05:35.058Z,28.95
2022-12-09T22:11:16.125Z,25.83
2022-12-09T22:14:03.724Z,29.80
2022-12-09T22:16:50.719Z,27.23
2022-12-09T22:19:38.236Z,27.02
2022-12-09T22:22:25.902Z,28.05
2022-12-09T22:25:13.076Z,28.83
2022-12-09T22:28:00.184Z,29.45
2022-12-09T22:30:47.398Z,26.15
2022-12-09T22:33:34.446Z,26.40
2022-12-09T22:36:22.519Z,29.20
2022-12-09T22:39:14.995Z,28.42
2022-12-09T22:42:02.072Z,28.02
2022-12-09T22:44:49.048Z,32.85
2022-12-09T22:47:36.092Z,33.17
2022-12-09T22:50:23.191Z,29.23
2022-12-09T22:53:10.212Z,28.10
2022-12-09T22:55:57.467Z,31.13
2022-12-09T22:58:44.865Z,27.55
2022-12-09T23:01:35.656Z,25.95
2022-12-09T23:04:22.845Z,28.30
2022-12-09T23:07:09.859Z,27.65
2022-12-09T23:09:56.916Z,31.15
2022-12-09T23:12:43.914Z,28.92
2022-12-09T23:15:32.044Z,30.65
2022-12-09T23:18:19.115Z,26.88
2022-12-09T23:21:09.166Z,27.25
2022-12-09T23:24:02.856Z,26.20
2022-12-09T23:26:49.939Z,30.45
2022-12-09T23:29:37.086Z,28.10
2022-12-09T23:32:24.154Z,118.57
2022-12-09T23:35:11.540Z,32.70
2022-12-09T23:37:58.598Z,32.70
2022-12-09T23:40:53.174Z,67.90
2022-12-09T23:43:40.778Z,70.22
2022-12-09T23:46:29.635Z,56.85
2022-12-09T23:49:17.150Z,35.58
2022-12-09T23:52:04.331Z,34.63
2022-12-09T23:54:51.380Z,34.75
2022-12-09T23:57:38.512Z,35.42
